sensor_id;sensor_type;location;lat;lon;timestamp;pressure;altitude;pressure_sealevel;temperature;humidity
23899;BME280;20544;50.018;20.010;2023-02-02T00:03:12;97851.47;;;3.01;100.00
23899;BME280;20544;50.018;20.010;2023-02-02T00:06:31;97853.45;;;2.99;100.00
23899;BME280;20544;50.018;20.010;2023-02-02T00:09:47;97854.58;;;2.97;100.00
23899;BME280;20544;50.018;20.010;2023-02-02T00:13:07;97856.20;;;2.98;100.00
23899;BME280;20544;50.018;20.010;2023-02-02T00:16:39;97861.95;;;3.01;100.00
23899;BME280;20544;50.018;20.010;2023-02-02T00:19:56;97862.06;;;2.91;100.00
23899;BME280;20544;50.018;20.010;2023-02-02T00:23:12;97873.16;;;2.85;100.00
23899;BME280;20544;50.018;20.010;2023-02-02T00:26:28;97871.54;;;2.84;100.00
23899;BME280;20544;50.018;20.010;2023-02-02T00:29:45;97879.04;;;2.79;100.00
23899;BME280;20544;50.018;20.010;2023-02-02T00:33:02;97886.16;;;2.69;100.00
23899;BME280;20544;50.018;20.010;2023-02-02T00:36:18;97872.50;;;2.57;100.00
23899;BME280;20544;50.018;20.010;2023-02-02T00:39:35;97869.81;;;2.49;100.00
23899;BME280;20544;50.018;20.010;2023-02-02T00:42:52;97879.31;;;2.50;100.00
23899;BME280;20544;50.018;20.010;2023-02-02T00:46:10;97876.95;;;2.38;100.00
23899;BME280;20544;50.018;20.010;2023-02-02T00:49:30;97886.97;;;2.25;100.00
23899;BME280;20544;50.018;20.010;2023-02-02T00:52:47;97888.53;;;2.18;100.00
23899;BME280;20544;50.018;20.010;2023-02-02T01:01:33;97896.02;;;1.94;100.00
23899;BME280;20544;50.018;20.010;2023-02-02T01:04:50;97893.37;;;1.76;100.00
23899;BME280;20544;50.018;20.010;2023-02-02T01:08:07;97889.94;;;1.76;100.00
23899;BME280;20544;50.018;20.010;2023-02-02T01:11:24;97887.45;;;1.74;100.00
23899;BME280;20544;50.018;20.010;2023-02-02T01:14:40;97897.84;;;1.66;100.00
23899;BME280;20544;50.018;20.010;2023-02-02T01:17:56;97902.91;;;1.68;100.00
23899;BME280;20544;50.018;20.010;2023-02-02T01:21:14;97900.55;;;1.47;100.00
23899;BME280;20544;50.018;20.010;2023-02-02T01:24:31;97904.70;;;1.39;100.00
23899;BME280;20544;50.018;20.010;2023-02-02T01:27:47;97910.31;;;1.44;100.00
23899;BME280;20544;50.018;20.010;2023-02-02T01:31:08;97906.78;;;1.36;100.00
23899;BME280;20544;50.018;20.010;2023-02-02T01:34:26;97910.12;;;1.28;100.00
23899;BME280;20544;50.018;20.010;2023-02-02T01:37:43;97911.53;;;1.22;100.00
23899;BME280;20544;50.018;20.010;2023-02-02T01:41:00;97909.55;;;1.34;100.00
23899;BME280;20544;50.018;20.010;2023-02-02T01:48:27;97911.53;;;1.22;100.00
23899;BME280;20544;50.018;20.010;2023-02-02T01:51:48;97927.45;;;1.29;100.00
23899;BME280;20544;50.018;20.010;2023-02-02T01:55:08;97918.11;;;1.26;100.00
23899;BME280;20544;50.018;20.010;2023-02-02T01:58:27;97919.45;;;1.31;100.00
23899;BME280;20544;50.018;20.010;2023-02-02T02:01:48;97927.17;;;1.32;100.00
23899;BME280;20544;50.018;20.010;2023-02-02T02:05:09;97929.64;;;1.34;100.00
23899;BME280;20544;50.018;20.010;2023-02-02T02:08:28;97935.98;;;1.31;100.00
23899;BME280;20544;50.018;20.010;2023-02-02T02:15:03;97944.86;;;1.38;100.00
23899;BME280;20544;50.018;20.010;2023-02-02T02:18:43;97940.48;;;1.39;100.00
23899;BME280;20544;50.018;20.010;2023-02-02T02:22:03;97942.02;;;1.32;100.00
23899;BME280;20544;50.018;20.010;2023-02-02T02:25:49;97953.88;;;1.26;100.00
23899;BME280;20544;50.018;20.010;2023-02-02T02:31:18;97958.80;;;1.29;100.00
23899;BME280;20544;50.018;20.010;2023-02-02T02:34:58;97963.61;;;1.34;100.00
23899;BME280;20544;50.018;20.010;2023-02-02T02:38:19;97965.92;;;1.37;100.00
23899;BME280;20544;50.018;20.010;2023-02-02T02:44:54;97970.91;;;1.30;100.00
23899;BME280;20544;50.018;20.010;2023-02-02T02:48:13;97973.77;;;1.37;100.00
23899;BME280;20544;50.018;20.010;2023-02-02T02:51:52;97983.64;;;1.43;100.00
23899;BME280;20544;50.018;20.010;2023-02-02T02:55:12;97993.70;;;1.38;100.00
23899;BME280;20544;50.018;20.010;2023-02-02T03:01:50;98001.00;;;1.34;100.00
23899;BME280;20544;50.018;20.010;2023-02-02T03:05:16;97990.70;;;1.33;100.00
23899;BME280;20544;50.018;20.010;2023-02-02T03:08:41;97993.86;;;1.36;100.00
23899;BME280;20544;50.018;20.010;2023-02-02T03:11:59;97996.62;;;1.35;100.00
23899;BME280;20544;50.018;20.010;2023-02-02T03:15:17;97995.63;;;1.36;100.00
23899;BME280;20544;50.018;20.010;2023-02-02T03:18:35;97996.62;;;1.35;100.00
23899;BME280;20544;50.018;20.010;2023-02-02T03:21:53;98000.44;;;1.40;100.00
23899;BME280;20544;50.018;20.010;2023-02-02T03:25:10;97999.47;;;1.41;100.00
23899;BME280;20544;50.018;20.010;2023-02-02T03:28:27;98007.86;;;1.45;100.00
23899;BME280;20544;50.018;20.010;2023-02-02T03:31:45;98013.48;;;1.50;100.00
23899;BME280;20544;50.018;20.010;2023-02-02T03:35:01;98008.09;;;1.52;100.00
23899;BME280;20544;50.018;20.010;2023-02-02T03:38:18;98010.05;;;1.50;100.00
23899;BME280;20544;50.018;20.010;2023-02-02T03:44:59;98016.33;;;1.57;100.00
23899;BME280;20544;50.018;20.010;2023-02-02T03:48:15;98017.98;;;1.58;100.00
23899;BME280;20544;50.018;20.010;2023-02-02T03:51:31;98009.98;;;1.59;100.00
23899;BME280;20544;50.018;20.010;2023-02-02T03:54:48;98017.56;;;1.63;100.00
23899;BME280;20544;50.018;20.010;2023-02-02T03:58:04;98020.14;;;1.72;100.00
23899;BME280;20544;50.018;20.010;2023-02-02T04:01:26;98012.72;;;1.68;100.00
23899;BME280;20544;50.018;20.010;2023-02-02T04:04:43;98020.14;;;1.72;100.00
23899;BME280;20544;50.018;20.010;2023-02-02T04:07:59;98009.53;;;1.74;100.00
23899;BME280;20544;50.018;20.010;2023-02-02T04:11:16;98015.15;;;1.79;100.00
23899;BME280;20544;50.018;20.010;2023-02-02T04:14:37;98005.11;;;1.74;100.00
23899;BME280;20544;50.018;20.010;2023-02-02T04:17:53;98018.19;;;1.74;100.00
23899;BME280;20544;50.018;20.010;2023-02-02T04:21:09;98020.68;;;1.76;100.00
23899;BME280;20544;50.018;20.010;2023-02-02T04:24:26;98011.88;;;1.77;100.00
23899;BME280;20544;50.018;20.010;2023-02-02T04:27:44;98010.45;;;1.83;100.00
23899;BME280;20544;50.018;20.010;2023-02-02T04:31:01;98013.07;;;1.83;100.00
23899;BME280;20544;50.018;20.010;2023-02-02T04:34:17;98012.69;;;1.77;100.00
23899;BME280;20544;50.018;20.010;2023-02-02T04:37:34;98021.06;;;1.81;100.00
23899;BME280;20544;50.018;20.010;2023-02-02T04:40:50;98019.95;;;1.84;100.00
23899;BME280;20544;50.018;20.010;2023-02-02T04:47:22;98019.95;;;1.84;100.00
23899;BME280;20544;50.018;20.010;2023-02-02T04:50:40;98024.88;;;1.87;100.00
23899;BME280;20544;50.018;20.010;2023-02-02T04:53:56;98016.77;;;1.90;100.00
23899;BME280;20544;50.018;20.010;2023-02-02T05:00:28;98028.88;;;1.91;100.00
23899;BME280;20544;50.018;20.010;2023-02-02T05:03:44;98027.64;;;1.85;100.00
23899;BME280;20544;50.018;20.010;2023-02-02T05:07:01;98019.91;;;1.93;100.00
23899;BME280;20544;50.018;20.010;2023-02-02T05:10:18;98026.64;;;1.96;100.00
23899;BME280;20544;50.018;20.010;2023-02-02T05:16:50;98031.57;;;1.99;100.00
23899;BME280;20544;50.018;20.010;2023-02-02T05:20:08;98030.33;;;2.03;100.00
23899;BME280;20544;50.018;20.010;2023-02-02T05:23:25;98036.80;;;1.99;100.00
23899;BME280;20544;50.018;20.010;2023-02-02T05:26:42;98033.76;;;2.04;100.00
23899;BME280;20544;50.018;20.010;2023-02-02T05:31:27;98038.99;;;2.04;100.00
23899;BME280;20544;50.018;20.010;2023-02-02T05:34:43;98034.30;;;2.07;100.00
23899;BME280;20544;50.018;20.010;2023-02-02T05:37:59;98030.56;;;2.10;100.00
23899;BME280;20544;50.018;20.010;2023-02-02T05:41:16;98031.38;;;2.10;100.00
23899;BME280;20544;50.018;20.010;2023-02-02T05:47:49;98032.64;;;2.06;100.00
23899;BME280;20544;50.018;20.010;2023-02-02T05:51:11;98025.48;;;2.08;100.00
23899;BME280;20544;50.018;20.010;2023-02-02T05:54:29;98026.30;;;2.09;100.00
23899;BME280;20544;50.018;20.010;2023-02-02T06:01:01;98032.59;;;2.16;100.00
23899;BME280;20544;50.018;20.010;2023-02-02T06:04:18;98030.78;;;2.17;100.00
23899;BME280;20544;50.018;20.010;2023-02-02T06:07:35;98034.40;;;2.16;100.00
23899;BME280;20544;50.018;20.010;2023-02-02T06:10:52;98023.94;;;2.16;100.00
23899;BME280;20544;50.018;20.010;2023-02-02T06:14:08;98025.44;;;2.18;100.00
23899;BME280;20544;50.018;20.010;2023-02-02T06:17:26;98014.28;;;2.16;100.00
23899;BME280;20544;50.018;20.010;2023-02-02T06:20:43;98022.35;;;2.23;100.00
23899;BME280;20544;50.018;20.010;2023-02-02T06:23:59;98020.42;;;2.25;100.00
23899;BME280;20544;50.018;20.010;2023-02-02T06:27:16;98014.60;;;2.31;100.00
23899;BME280;20544;50.018;20.010;2023-02-02T06:30:32;98012.52;;;2.35;100.00
23899;BME280;20544;50.018;20.010;2023-02-02T06:33:55;98019.78;;;2.41;100.00
23899;BME280;20544;50.018;20.010;2023-02-02T06:37:12;98017.38;;;2.48;100.00
23899;BME280;20544;50.018;20.010;2023-02-02T06:40:28;98012.14;;;2.48;100.00
23899;BME280;20544;50.018;20.010;2023-02-02T06:43:45;98015.53;;;2.58;100.00
23899;BME280;20544;50.018;20.010;2023-02-02T06:47:01;98012.08;;;2.57;100.00
23899;BME280;20544;50.018;20.010;2023-02-02T06:50:18;98008.05;;;2.63;100.00
23899;BME280;20544;50.018;20.010;2023-02-02T06:53:35;98010.35;;;2.66;100.00
23899;BME280;20544;50.018;20.010;2023-02-02T06:56:51;98005.64;;;2.70;100.00
23899;BME280;20544;50.018;20.010;2023-02-02T07:00:10;98010.44;;;2.74;100.00
23899;BME280;20544;50.018;20.010;2023-02-02T07:03:28;98009.99;;;2.79;100.00
23899;BME280;20544;50.018;20.010;2023-02-02T07:06:45;98006.69;;;2.77;100.00
23899;BME280;20544;50.018;20.010;2023-02-02T07:10:02;98014.11;;;2.82;100.00
23899;BME280;20544;50.018;20.010;2023-02-02T07:13:23;98011.48;;;2.82;100.00
23899;BME280;20544;50.018;20.010;2023-02-02T07:16:39;98010.04;;;2.87;100.00
23899;BME280;20544;50.018;20.010;2023-02-02T07:19:55;97998.44;;;2.90;100.00
23899;BME280;20544;50.018;20.010;2023-02-02T07:23:12;97992.39;;;2.89;100.00
23899;BME280;20544;50.018;20.010;2023-02-02T07:26:28;98011.85;;;2.87;100.00
23899;BME280;20544;50.018;20.010;2023-02-02T07:29:45;98017.61;;;2.90;100.00
23899;BME280;20544;50.018;20.010;2023-02-02T07:33:01;98021.36;;;2.88;100.00
23899;BME280;20544;50.018;20.010;2023-02-02T07:36:19;98022.98;;;2.89;100.00
23899;BME280;20544;50.018;20.010;2023-02-02T07:39:36;98023.09;;;2.79;100.00
23899;BME280;20544;50.018;20.010;2023-02-02T07:46:09;98013.70;;;2.77;100.00
23899;BME280;20544;50.018;20.010;2023-02-02T07:49:26;98013.34;;;2.71;100.00
23899;BME280;20544;50.018;20.010;2023-02-02T07:52:44;98025.91;;;2.68;100.00
23899;BME280;20544;50.018;20.010;2023-02-02T07:56:09;98030.02;;;2.70;100.00
23899;BME280;20544;50.018;20.010;2023-02-02T08:02:42;98010.95;;;2.60;100.00
23899;BME280;20544;50.018;20.010;2023-02-02T08:06:00;98018.34;;;2.29;100.00
23899;BME280;20544;50.018;20.010;2023-02-02T08:09:20;98011.08;;;2.22;100.00
23899;BME280;20544;50.018;20.010;2023-02-02T08:12:36;98006.00;;;2.21;100.00
23899;BME280;20544;50.018;20.010;2023-02-02T08:15:53;98003.86;;;2.06;100.00
23899;BME280;20544;50.018;20.010;2023-02-02T08:19:12;98006.25;;;2.00;100.00
23899;BME280;20544;50.018;20.010;2023-02-02T08:22:28;97989.18;;;1.96;100.00
23899;BME280;20544;50.018;20.010;2023-02-02T08:25:47;97995.84;;;1.90;100.00
23899;BME280;20544;50.018;20.010;2023-02-02T08:29:07;98005.19;;;1.92;100.00
23899;BME280;20544;50.018;20.010;2023-02-02T08:32:25;97998.19;;;1.83;100.00
23899;BME280;20544;50.018;20.010;2023-02-02T08:35:43;98000.19;;;1.71;100.00
23899;BME280;20544;50.018;20.010;2023-02-02T08:39:03;97996.07;;;1.69;100.00
23899;BME280;20544;50.018;20.010;2023-02-02T08:42:22;97990.30;;;1.65;100.00
23899;BME280;20544;50.018;20.010;2023-02-02T08:45:46;97982.08;;;1.60;100.00
23899;BME280;20544;50.018;20.010;2023-02-02T08:49:05;97992.62;;;1.68;100.00
23899;BME280;20544;50.018;20.010;2023-02-02T08:52:22;97997.19;;;1.66;100.00
23899;BME280;20544;50.018;20.010;2023-02-02T08:55:38;97991.53;;;1.71;100.00
23899;BME280;20544;50.018;20.010;2023-02-02T09:02:13;97982.12;;;1.78;100.00
23899;BME280;20544;50.018;20.010;2023-02-02T09:05:31;97984.99;;;1.85;100.00
23899;BME280;20544;50.018;20.010;2023-02-02T09:08:48;97985.80;;;1.85;100.00
23899;BME280;20544;50.018;20.010;2023-02-02T09:12:05;97975.72;;;1.90;100.00
23899;BME280;20544;50.018;20.010;2023-02-02T09:15:22;97968.62;;;1.83;100.00
23899;BME280;20544;50.018;20.010;2023-02-02T09:18:39;97974.70;;;2.01;100.00
23899;BME280;20544;50.018;20.010;2023-02-02T09:21:56;97967.23;;;2.06;100.00
23899;BME280;20544;50.018;20.010;2023-02-02T09:25:15;97980.58;;;2.13;100.00
23899;BME280;20544;50.018;20.010;2023-02-02T09:31:49;97978.86;;;2.22;100.00
23899;BME280;20544;50.018;20.010;2023-02-02T09:35:07;97977.74;;;2.24;100.00
23899;BME280;20544;50.018;20.010;2023-02-02T09:38:23;97990.36;;;2.29;100.00
23899;BME280;20544;50.018;20.010;2023-02-02T09:42:03;97993.23;;;2.36;100.00
23899;BME280;20544;50.018;20.010;2023-02-02T09:45:33;97985.06;;;2.39;100.00
23899;BME280;20544;50.018;20.010;2023-02-02T09:48:55;97988.58;;;2.48;100.00
23899;BME280;20544;50.018;20.010;2023-02-02T09:52:16;97988.14;;;2.52;100.00
23899;BME280;20544;50.018;20.010;2023-02-02T09:55:37;98006.63;;;2.51;100.00
23899;BME280;20544;50.018;20.010;2023-02-02T10:02:18;98025.01;;;2.41;100.00
23899;BME280;20544;50.018;20.010;2023-02-02T10:05:43;98015.35;;;2.41;100.00
23899;BME280;20544;50.018;20.010;2023-02-02T10:09:10;98034.36;;;2.43;100.00
23899;BME280;20544;50.018;20.010;2023-02-02T10:12:37;98026.79;;;2.40;100.00
23899;BME280;20544;50.018;20.010;2023-02-02T10:17:43;98024.38;;;2.29;100.00
23899;BME280;20544;50.018;20.010;2023-02-02T10:21:05;98023.04;;;2.25;100.00
23899;BME280;20544;50.018;20.010;2023-02-02T10:24:27;98033.17;;;2.10;100.00
23899;BME280;20544;50.018;20.010;2023-02-02T10:27:47;98045.14;;;2.13;100.00
23899;BME280;20544;50.018;20.010;2023-02-02T10:33:04;98046.61;;;1.97;100.00
23899;BME280;20544;50.018;20.010;2023-02-02T10:36:27;98039.61;;;1.88;100.00
23899;BME280;20544;50.018;20.010;2023-02-02T10:39:58;98037.18;;;1.76;100.00
23899;BME280;20544;50.018;20.010;2023-02-02T10:43:44;98032.73;;;1.87;100.00
23899;BME280;20544;50.018;20.010;2023-02-02T10:47:12;98038.41;;;1.82;100.00
23899;BME280;20544;50.018;20.010;2023-02-02T10:50:32;98045.80;;;1.87;100.00
23899;BME280;20544;50.018;20.010;2023-02-02T10:53:51;98042.03;;;1.99;100.00
23899;BME280;20544;50.018;20.010;2023-02-02T10:57:13;98046.73;;;1.96;100.00
23899;BME280;20544;50.018;20.010;2023-02-02T11:00:38;98050.42;;;2.03;100.00
23899;BME280;20544;50.018;20.010;2023-02-02T11:03:56;98056.11;;;1.98;100.00
23899;BME280;20544;50.018;20.010;2023-02-02T11:07:27;98056.72;;;2.10;100.00
23899;BME280;20544;50.018;20.010;2023-02-02T11:10:45;98071.15;;;2.14;100.00
23899;BME280;20544;50.018;20.010;2023-02-02T11:14:11;98065.22;;;2.22;100.00
23899;BME280;20544;50.018;20.010;2023-02-02T11:17:30;98060.15;;;2.10;100.00
23899;BME280;20544;50.018;20.010;2023-02-02T11:20:47;98068.53;;;2.14;100.00
23899;BME280;20544;50.018;20.010;2023-02-02T11:24:19;98083.08;;;2.26;100.00
23899;BME280;20544;50.018;20.010;2023-02-02T11:27:37;98082.84;;;2.20;100.00
23899;BME280;20544;50.018;20.010;2023-02-02T11:34:19;98084.73;;;2.28;100.00
23899;BME280;20544;50.018;20.010;2023-02-02T11:37:50;98091.77;;;2.27;100.00
23899;BME280;20544;50.018;20.010;2023-02-02T11:41:11;98095.34;;;2.26;100.00
23899;BME280;20544;50.018;20.010;2023-02-02T11:44:29;98099.84;;;2.34;100.00
23899;BME280;20544;50.018;20.010;2023-02-02T11:47:44;98094.92;;;2.31;100.00
23899;BME280;20544;50.018;20.010;2023-02-02T11:51:02;98104.66;;;2.38;100.00
23899;BME280;20544;50.018;20.010;2023-02-02T11:54:22;98099.31;;;2.30;100.00
23899;BME280;20544;50.018;20.010;2023-02-02T11:57:42;98104.61;;;2.48;100.00
23899;BME280;20544;50.018;20.010;2023-02-02T12:02:49;98115.73;;;2.50;100.00
23899;BME280;20544;50.018;20.010;2023-02-02T12:06:25;98114.61;;;2.53;100.00
23899;BME280;20544;50.018;20.010;2023-02-02T12:09:49;98116.59;;;2.69;100.00
23899;BME280;20544;50.018;20.010;2023-02-02T12:13:12;98112.42;;;2.76;100.00
23899;BME280;20544;50.018;20.010;2023-02-02T12:16:38;98125.29;;;2.69;100.00
23899;BME280;20544;50.018;20.010;2023-02-02T12:20:13;98124.55;;;2.77;100.00
23899;BME280;20544;50.018;20.010;2023-02-02T12:23:54;98137.58;;;2.87;100.00
23899;BME280;20544;50.018;20.010;2023-02-02T12:27:21;98137.58;;;2.87;100.00
23899;BME280;20544;50.018;20.010;2023-02-02T12:30:45;98151.05;;;2.92;100.00
23899;BME280;20544;50.018;20.010;2023-02-02T12:34:10;98152.83;;;2.91;100.00
23899;BME280;20544;50.018;20.010;2023-02-02T12:37:38;98168.12;;;2.96;100.00
23899;BME280;20544;50.018;20.010;2023-02-02T12:41:16;98165.22;;;2.99;100.00
23899;BME280;20544;50.018;20.010;2023-02-02T12:47:59;98179.13;;;3.00;100.00
23899;BME280;20544;50.018;20.010;2023-02-02T12:51:32;98183.25;;;3.02;100.00
23899;BME280;20544;50.018;20.010;2023-02-02T12:55:03;98195.66;;;3.00;100.00
23899;BME280;20544;50.018;20.010;2023-02-02T13:01:50;98197.31;;;3.01;100.00
23899;BME280;20544;50.018;20.010;2023-02-02T13:05:40;98206.83;;;3.02;100.00
23899;BME280;20544;50.018;20.010;2023-02-02T13:09:06;98216.34;;;3.03;100.00
23899;BME280;20544;50.018;20.010;2023-02-02T13:12:28;98223.89;;;3.06;100.00
23899;BME280;20544;50.018;20.010;2023-02-02T13:19:05;98229.23;;;3.15;100.00
23899;BME280;20544;50.018;20.010;2023-02-02T13:22:26;98235.01;;;3.18;100.00
23899;BME280;20544;50.018;20.010;2023-02-02T13:25:48;98242.72;;;3.20;100.00
23899;BME280;20544;50.018;20.010;2023-02-02T13:29:10;98249.61;;;3.21;100.00
23899;BME280;20544;50.018;20.010;2023-02-02T13:32:32;98250.05;;;3.16;100.00
23899;BME280;20544;50.018;20.010;2023-02-02T13:35:53;98260.25;;;3.19;100.00
23899;BME280;20544;50.018;20.010;2023-02-02T13:39:16;98270.42;;;3.22;100.00
23899;BME280;20544;50.018;20.010;2023-02-02T13:42:37;98270.30;;;3.24;100.00
23899;BME280;20544;50.018;20.010;2023-02-02T13:46:05;98280.25;;;3.20;100.00
23899;BME280;20544;50.018;20.010;2023-02-02T13:49:28;98284.22;;;3.24;100.00
23899;BME280;20544;50.018;20.010;2023-02-02T13:52:57;98293.59;;;3.27;100.00
23899;BME280;20544;50.018;20.010;2023-02-02T13:56:44;98295.52;;;3.25;100.00
23899;BME280;20544;50.018;20.010;2023-02-02T14:03:34;98312.63;;;3.29;100.00
23899;BME280;20544;50.018;20.010;2023-02-02T14:07:03;98315.91;;;3.31;100.00
23899;BME280;20544;50.018;20.010;2023-02-02T14:10:26;98323.49;;;3.34;100.00
23899;BME280;20544;50.018;20.010;2023-02-02T14:13:49;98323.64;;;3.33;100.00
23899;BME280;20544;50.018;20.010;2023-02-02T14:17:54;98331.36;;;3.34;100.00
23899;BME280;20544;50.018;20.010;2023-02-02T14:21:12;98347.03;;;3.44;100.00
23899;BME280;20544;50.018;20.010;2023-02-02T14:24:43;98347.63;;;3.38;100.00
23899;BME280;20544;50.018;20.010;2023-02-02T14:28:07;98356.14;;;3.40;100.00
23899;BME280;20544;50.018;20.010;2023-02-02T14:34:41;98362.13;;;3.32;100.00
23899;BME280;20544;50.018;20.010;2023-02-02T14:38:01;98364.47;;;3.35;100.00
23899;BME280;20544;50.018;20.010;2023-02-02T14:41:26;98372.19;;;3.37;100.00
23899;BME280;20544;50.018;20.010;2023-02-02T14:45:15;98385.14;;;3.38;100.00
23899;BME280;20544;50.018;20.010;2023-02-02T14:48:45;98397.97;;;3.42;100.00
23899;BME280;20544;50.018;20.010;2023-02-02T14:52:03;98403.88;;;3.44;100.00
23899;BME280;20544;50.018;20.010;2023-02-02T14:55:22;98408.16;;;3.45;100.00
23899;BME280;20544;50.018;20.010;2023-02-02T14:58:59;98409.00;;;3.45;100.00
23899;BME280;20544;50.018;20.010;2023-02-02T15:02:21;98414.24;;;3.45;100.00
23899;BME280;20544;50.018;20.010;2023-02-02T15:05:47;98414.52;;;3.42;100.00
23899;BME280;20544;50.018;20.010;2023-02-02T15:09:36;98422.11;;;3.45;100.00
23899;BME280;20544;50.018;20.010;2023-02-02T15:13:02;98423.61;;;3.48;100.00
23899;BME280;20544;50.018;20.010;2023-02-02T15:19:40;98450.41;;;3.42;100.00
23899;BME280;20544;50.018;20.010;2023-02-02T15:23:00;98460.45;;;3.46;100.00
23899;BME280;20544;50.018;20.010;2023-02-02T15:26:22;98462.25;;;3.46;100.00
23899;BME280;20544;50.018;20.010;2023-02-02T15:29:43;98476.33;;;3.45;100.00
23899;BME280;20544;50.018;20.010;2023-02-02T15:33:10;98477.45;;;3.42;100.00
23899;BME280;20544;50.018;20.010;2023-02-02T15:36:31;98483.80;;;3.39;100.00
23899;BME280;20544;50.018;20.010;2023-02-02T15:39:53;98494.30;;;3.39;100.00
23899;BME280;20544;50.018;20.010;2023-02-02T15:43:12;98510.02;;;3.39;100.00
23899;BME280;20544;50.018;20.010;2023-02-02T15:49:45;98522.44;;;3.37;100.00
23899;BME280;20544;50.018;20.010;2023-02-02T15:53:03;98530.19;;;3.39;100.00
23899;BME280;20544;50.018;20.010;2023-02-02T15:56:27;98528.80;;;3.35;100.00
23899;BME280;20544;50.018;20.010;2023-02-02T16:03:03;98551.30;;;3.28;100.00
23899;BME280;20544;50.018;20.010;2023-02-02T16:06:23;98553.52;;;3.22;100.00
23899;BME280;20544;50.018;20.010;2023-02-02T16:09:40;98567.47;;;3.23;100.00
23899;BME280;20544;50.018;20.010;2023-02-02T16:12:57;98574.22;;;3.26;100.00
23899;BME280;20544;50.018;20.010;2023-02-02T16:19:29;98583.86;;;3.25;100.00
23899;BME280;20544;50.018;20.010;2023-02-02T16:22:46;98588.44;;;3.23;100.00
23899;BME280;20544;50.018;20.010;2023-02-02T16:26:05;98593.13;;;3.19;100.00
23899;BME280;20544;50.018;20.010;2023-02-02T16:29:25;98601.14;;;3.18;100.00
23899;BME280;20544;50.018;20.010;2023-02-02T16:32:43;98607.20;;;3.18;100.00
23899;BME280;20544;50.018;20.010;2023-02-02T16:35:59;98625.40;;;3.20;100.00
23899;BME280;20544;50.018;20.010;2023-02-02T16:39:23;98628.98;;;3.19;100.00
23899;BME280;20544;50.018;20.010;2023-02-02T16:42:41;98634.77;;;3.13;100.00
23899;BME280;20544;50.018;20.010;2023-02-02T16:49:21;98654.63;;;3.15;100.00
23899;BME280;20544;50.018;20.010;2023-02-02T16:52:49;98648.58;;;3.15;100.00
23899;BME280;20544;50.018;20.010;2023-02-02T16:56:08;98667.47;;;3.08;100.00
23899;BME280;20544;50.018;20.010;2023-02-02T17:06:02;98687.19;;;3.13;100.00
23899;BME280;20544;50.018;20.010;2023-02-02T17:09:31;98673.27;;;3.12;100.00
23899;BME280;20544;50.018;20.010;2023-02-02T17:12:49;98691.18;;;2.97;100.00
23899;BME280;20544;50.018;20.010;2023-02-02T17:16:08;98695.72;;;2.95;100.00
23899;BME280;20544;50.018;20.010;2023-02-02T17:19:31;98704.82;;;2.91;100.00
23899;BME280;20544;50.018;20.010;2023-02-02T17:22:49;98705.92;;;2.88;100.00
23899;BME280;20544;50.018;20.010;2023-02-02T17:26:09;98711.55;;;2.84;100.00
23899;BME280;20544;50.018;20.010;2023-02-02T17:32:42;98722.14;;;2.72;100.00
23899;BME280;20544;50.018;20.010;2023-02-02T17:35:58;98726.42;;;2.73;100.00
23899;BME280;20544;50.018;20.010;2023-02-02T17:39:15;98734.53;;;2.70;100.00
23899;BME280;20544;50.018;20.010;2023-02-02T17:42:32;98738.24;;;2.68;100.00
23899;BME280;20544;50.018;20.010;2023-02-02T17:45:49;98754.80;;;2.68;100.00
23899;BME280;20544;50.018;20.010;2023-02-02T17:49:06;98754.80;;;2.68;100.00
23899;BME280;20544;50.018;20.010;2023-02-02T17:52:23;98764.19;;;2.71;100.00
23899;BME280;20544;50.018;20.010;2023-02-02T17:55:43;98771.09;;;2.72;100.00
23899;BME280;20544;50.018;20.010;2023-02-02T17:58:58;98770.25;;;2.71;100.00
23899;BME280;20544;50.018;20.010;2023-02-02T18:05:30;98782.38;;;2.72;100.00
23899;BME280;20544;50.018;20.010;2023-02-02T18:08:48;98790.67;;;2.78;100.00
23899;BME280;20544;50.018;20.010;2023-02-02T18:12:06;98791.63;;;2.77;100.00
23899;BME280;20544;50.018;20.010;2023-02-02T18:15:22;98791.63;;;2.77;100.00
23899;BME280;20544;50.018;20.010;2023-02-02T18:18:39;98800.02;;;2.70;100.00
23899;BME280;20544;50.018;20.010;2023-02-02T18:21:56;98814.53;;;2.74;100.00
23899;BME280;20544;50.018;20.010;2023-02-02T18:25:12;98807.63;;;2.73;100.00
23899;BME280;20544;50.018;20.010;2023-02-02T18:28:29;98806.34;;;2.68;100.00
23899;BME280;20544;50.018;20.010;2023-02-02T18:31:45;98805.67;;;2.66;100.00
23899;BME280;20544;50.018;20.010;2023-02-02T18:35:02;98809.10;;;2.66;100.00
23899;BME280;20544;50.018;20.010;2023-02-02T18:38:19;98813.91;;;2.61;100.00
23899;BME280;20544;50.018;20.010;2023-02-02T18:41:36;98825.09;;;2.63;100.00
23899;BME280;20544;50.018;20.010;2023-02-02T18:44:52;98835.67;;;2.62;100.00
23899;BME280;20544;50.018;20.010;2023-02-02T18:48:09;98843.23;;;2.55;100.00
23899;BME280;20544;50.018;20.010;2023-02-02T18:51:28;98863.22;;;2.56;100.00
23899;BME280;20544;50.018;20.010;2023-02-02T18:54:45;98869.28;;;2.56;100.00
23899;BME280;20544;50.018;20.010;2023-02-02T18:58:05;98865.70;;;2.57;100.00
23899;BME280;20544;50.018;20.010;2023-02-02T19:01:24;98876.55;;;2.53;100.00
23899;BME280;20544;50.018;20.010;2023-02-02T19:04:41;98874.08;;;2.51;100.00
23899;BME280;20544;50.018;20.010;2023-02-02T19:08:08;98888.97;;;2.51;100.00
23899;BME280;20544;50.018;20.010;2023-02-02T19:11:26;98893.80;;;2.55;100.00
23899;BME280;20544;50.018;20.010;2023-02-02T19:18:09;98910.50;;;2.54;100.00
23899;BME280;20544;50.018;20.010;2023-02-02T19:21:29;98916.11;;;2.50;100.00
23899;BME280;20544;50.018;20.010;2023-02-02T19:24:46;98915.16;;;2.51;100.00
23899;BME280;20544;50.018;20.010;2023-02-02T19:28:11;98919.47;;;2.40;100.00